createdAt,value
2023-02-10T05:09:56.329Z,89766.00
2023-02-10T05:10:55.365Z,89770.00
2023-02-10T05:11:55.363Z,89772.00
2023-02-10T05:12:55.337Z,89774.00
2023-02-10T05:13:55.326Z,89778.00
2023-02-10T05:14:55.328Z,89778.00
2023-02-10T05:15:55.321Z,89772.00
2023-02-10T05:16:55.283Z,89772.00
2023-02-10T05:17:55.260Z,89770.00
2023-02-10T05:18:55.242Z,89774.00
2023-02-10T05:19:55.245Z,89774.00
2023-02-10T05:20:55.191Z,89778.00
2023-02-10T05:21:55.209Z,89782.00
2023-02-10T05:22:55.259Z,89784.00
2023-02-10T05:23:55.288Z,89782.00
2023-02-10T05:24:55.353Z,89786.00
2023-02-10T05:25:55.339Z,89778.00
2023-02-10T05:26:55.379Z,89778.00
2023-02-10T05:27:55.459Z,89776.00
2023-02-10T05:28:55.460Z,89778.00
2023-02-10T05:29:55.508Z,89778.00
2023-02-10T05:30:55.598Z,89784.00
2023-02-10T05:31:55.600Z,89784.00
2023-02-10T05:32:55.621Z,89786.00
2023-02-10T05:33:55.691Z,89782.00
2023-02-10T05:34:55.705Z,89778.00
2023-02-10T05:35:55.748Z,89780.00
2023-02-10T05:36:55.799Z,89780.00
2023-02-10T05:37:55.825Z,89778.00
2023-02-10T05:38:55.886Z,89786.00
2023-02-10T05:39:55.909Z,89786.00
2023-02-10T05:40:56.792Z,89793.00
2023-02-10T05:41:55.943Z,89793.00
2023-02-10T05:42:55.911Z,89790.00
2023-02-10T05:43:55.914Z,89791.00
2023-02-10T05:44:55.897Z,89793.00
2023-02-10T05:45:55.922Z,89790.00
2023-02-10T05:46:55.853Z,89791.00
2023-02-10T05:47:55.867Z,89795.00
2023-02-10T05:48:55.863Z,89793.00
2023-02-10T05:49:55.910Z,89799.00
2023-02-10T05:50:55.956Z,89797.00
2023-02-10T05:51:55.995Z,89795.00
2023-02-10T05:52:56.037Z,89791.00
2023-02-10T05:53:56.091Z,89788.00
2023-02-10T05:54:56.079Z,89788.00
2023-02-10T05:55:56.062Z,89788.00
2023-02-10T05:57:56.033Z,89788.00
2023-02-10T05:58:56.009Z,89791.00
2023-02-10T05:59:56.003Z,89793.00
2023-02-10T06:00:55.992Z,89795.00
2023-02-10T06:01:56.018Z,89793.00
2023-02-10T06:02:55.980Z,89791.00
2023-02-10T06:03:55.951Z,89790.00
2023-02-10T06:04:55.940Z,89791.00
2023-02-10T06:05:55.985Z,89795.00
2023-02-10T06:06:55.925Z,89795.00
2023-02-10T06:07:55.896Z,89799.00
2023-02-10T06:08:55.914Z,89801.00
2023-02-10T06:09:55.865Z,89799.00
2023-02-10T06:10:55.844Z,89799.00
2023-02-10T06:11:55.843Z,89799.00
2023-02-10T06:12:55.820Z,89801.00
2023-02-10T06:13:55.807Z,89799.00
2023-02-10T06:14:55.819Z,89803.00
2023-02-10T06:15:55.802Z,89803.00
2023-02-10T06:16:55.758Z,89805.00
2023-02-10T06:17:55.735Z,89803.00
2023-02-10T06:18:55.712Z,89799.00
2023-02-10T06:19:55.730Z,89795.00
2023-02-10T06:20:55.711Z,89797.00
2023-02-10T06:21:55.684Z,89799.00
2023-02-10T06:22:55.657Z,89801.00
2023-02-10T06:23:55.654Z,89805.00
2023-02-10T06:24:57.673Z,89807.00
2023-02-10T06:25:55.664Z,89807.00
2023-02-10T06:26:55.605Z,89809.00
2023-02-10T06:27:55.652Z,89807.00
2023-02-10T06:28:55.589Z,89807.00
2023-02-10T06:29:55.587Z,89809.00
2023-02-10T06:30:55.627Z,89813.00
2023-02-10T06:31:55.611Z,89811.00
2023-02-10T06:32:55.525Z,89827.00
2023-02-10T06:33:55.525Z,89833.00
2023-02-10T06:34:55.513Z,89827.00
2023-02-10T06:35:55.495Z,89833.00
2023-02-10T06:36:55.630Z,89825.00
2023-02-10T06:37:55.463Z,89829.00
2023-02-10T06:38:55.447Z,89829.00
2023-02-10T06:39:55.430Z,89829.00
2023-02-10T06:40:55.432Z,89839.00
2023-02-10T06:41:55.402Z,89835.00
2023-02-10T06:42:55.378Z,89835.00
2023-02-10T06:43:55.355Z,89833.00
2023-02-10T06:44:55.335Z,89839.00
2023-02-10T06:45:55.425Z,89837.00
2023-02-10T06:46:55.816Z,89843.00
2023-02-10T06:47:55.256Z,89839.00
2023-02-10T06:48:55.244Z,89841.00
2023-02-10T06:49:55.228Z,89843.00
2023-02-10T06:50:55.223Z,89837.00
2023-02-10T06:51:55.304Z,89835.00
2023-02-10T06:52:55.172Z,89837.00
2023-02-10T06:53:55.145Z,89841.00
2023-02-10T06:54:55.140Z,89837.00
2023-02-10T06:55:55.116Z,89841.00
2023-02-10T06:56:55.130Z,89841.00
2023-02-10T06:57:55.109Z,89846.00
2023-02-10T06:58:55.062Z,89845.00
2023-02-10T06:59:55.035Z,89845.00
2023-02-10T07:00:55.025Z,89843.00
2023-02-10T07:01:55.006Z,89843.00
2023-02-10T07:02:55.024Z,89843.00
2023-02-10T07:03:54.961Z,89843.00
2023-02-10T07:04:54.990Z,89843.00
2023-02-10T07:05:54.922Z,89845.00
2023-02-10T07:06:54.877Z,89845.00
2023-02-10T07:07:54.888Z,89843.00
2023-02-10T07:08:54.871Z,89843.00
2023-02-10T07:09:54.816Z,89845.00
2023-02-10T07:10:54.807Z,89856.00
2023-02-10T07:11:54.807Z,89846.00
2023-02-10T07:12:56.718Z,89846.00
2023-02-10T07:13:54.773Z,89846.00
2023-02-10T07:14:54.705Z,89850.00
2023-02-10T07:15:54.700Z,89850.00
2023-02-10T07:16:54.659Z,89850.00
2023-02-10T07:17:54.668Z,89852.00
2023-02-10T07:18:54.632Z,89846.00
2023-02-10T07:19:54.642Z,89846.00
2023-02-10T07:20:54.578Z,89846.00
2023-02-10T07:21:54.547Z,89848.00
2023-02-10T07:22:54.536Z,89850.00
2023-02-10T07:23:54.498Z,89850.00
2023-02-10T07:24:54.484Z,89850.00
2023-02-10T07:25:54.449Z,89858.00
2023-02-10T07:26:54.435Z,89854.00
2023-02-10T07:27:54.440Z,89854.00
2023-02-10T07:28:54.373Z,89858.00
2023-02-10T07:29:54.358Z,89846.00
2023-02-10T07:30:54.366Z,89860.00
2023-02-10T07:31:54.413Z,89848.00
2023-02-10T07:32:54.273Z,89860.00
2023-02-10T07:33:54.255Z,89860.00
2023-02-10T07:34:54.232Z,89854.00
2023-02-10T07:35:54.260Z,89860.00
2023-02-10T07:36:54.164Z,89864.00
2023-02-10T07:37:54.128Z,89864.00
2023-02-10T07:38:54.132Z,89864.00
2023-02-10T07:39:54.093Z,89866.00
2023-02-10T07:40:54.073Z,89868.00
2023-02-10T07:41:54.049Z,89868.00
2023-02-10T07:42:54.008Z,89870.00
2023-02-10T07:43:53.989Z,89868.00
2023-02-10T07:44:53.968Z,89870.00
2023-02-10T07:45:54.182Z,89868.00
2023-02-10T09:38:50.853Z,89884.00
2023-02-10T09:39:50.766Z,89882.00
2023-02-10T09:40:50.682Z,89882.00
2023-02-10T09:41:50.659Z,89878.00
2023-02-10T09:42:50.605Z,89882.00
2023-02-10T09:43:50.580Z,89880.00
2023-02-10T09:44:50.536Z,89880.00
2023-02-10T09:45:51.023Z,89880.00
2023-02-10T09:46:50.462Z,89876.00
2023-02-10T09:47:50.487Z,89880.00
2023-02-10T09:48:50.435Z,89880.00
2023-02-10T09:49:50.346Z,89882.00
2023-02-10T09:50:50.308Z,89880.00
2023-02-10T09:51:50.269Z,89878.00
2023-02-10T09:52:50.236Z,89878.00
2023-02-10T09:53:50.204Z,89876.00
2023-02-10T09:54:52.893Z,89874.00
2023-02-10T09:55:50.429Z,89872.00
2023-02-10T09:56:50.078Z,89874.00
2023-02-10T09:57:50.043Z,89872.00
2023-02-10T09:58:50.015Z,89872.00
2023-02-10T09:59:50.020Z,89872.00
2023-02-10T10:00:49.976Z,89874.00
2023-02-10T10:01:49.929Z,89872.00
2023-02-10T10:02:49.857Z,89868.00
2023-02-10T10:03:49.838Z,89868.00
2023-02-10T10:04:49.801Z,89864.00
2023-02-10T10:05:50.137Z,89866.00
2023-02-10T10:06:49.700Z,89864.00
2023-02-10T10:07:49.654Z,89862.00
2023-02-10T10:08:49.651Z,89862.00
2023-02-10T10:09:49.588Z,89866.00
2023-02-10T10:10:49.584Z,89868.00
2023-02-10T10:11:49.514Z,89866.00
2023-02-10T10:12:49.493Z,89866.00
2023-02-10T10:13:49.429Z,89864.00
2023-02-10T10:14:49.398Z,89862.00
2023-02-10T10:15:49.354Z,89864.00
2023-02-10T10:16:49.417Z,89860.00
2023-02-10T10:17:49.345Z,89864.00
2023-02-10T10:18:49.261Z,89862.00
2023-02-10T10:19:49.192Z,89860.00
2023-02-10T10:20:49.140Z,89862.00
2023-02-10T10:21:49.103Z,89856.00
2023-02-10T10:22:49.081Z,89854.00
2023-02-10T10:23:49.018Z,89856.00
2023-02-10T10:24:48.967Z,89856.00
2023-02-10T10:25:49.257Z,89856.00
2023-02-10T10:26:48.906Z,89856.00
2023-02-10T10:27:48.834Z,89852.00
2023-02-10T10:28:48.802Z,89852.00
2023-02-10T10:29:48.751Z,89854.00
2023-02-10T10:30:48.773Z,89852.00
2023-02-10T10:31:48.701Z,89854.00
2023-02-10T10:32:48.629Z,89852.00
2023-02-10T10:33:48.604Z,89852.00
2023-02-10T10:34:48.540Z,89848.00
2023-02-10T10:35:48.807Z,89846.00
2023-02-10T10:36:48.461Z,89845.00
2023-02-10T10:37:48.396Z,89846.00
2023-02-10T10:38:48.371Z,89846.00
2023-02-10T10:39:48.392Z,89845.00
2023-02-10T10:40:48.465Z,89843.00
2023-02-10T10:41:48.228Z,89841.00
2023-02-10T10:42:48.190Z,89843.00
2023-02-10T10:43:48.140Z,89841.00
2023-02-10T10:44:48.114Z,89841.00
2023-02-10T10:45:48.517Z,89839.00
2023-02-10T10:46:48.006Z,89837.00
2023-02-10T10:47:47.970Z,89839.00
2023-02-10T10:48:47.959Z,89837.00
2023-02-10T10:49:47.884Z,89837.00
2023-02-10T10:50:47.841Z,89837.00
2023-02-10T10:51:47.796Z,89835.00
2023-02-10T10:52:47.751Z,89835.00
2023-02-10T10:53:47.712Z,89835.00
2023-02-10T10:54:47.681Z,89831.00
2023-02-10T10:55:47.945Z,89829.00
2023-02-10T10:56:47.586Z,89825.00
2023-02-10T10:57:47.550Z,89823.00
2023-02-10T10:58:47.512Z,89821.00
2023-02-10T10:59:47.483Z,89817.00
2023-02-10T11:00:47.418Z,89819.00
2023-02-10T11:01:47.413Z,89819.00
2023-02-10T11:02:47.366Z,89815.00
2023-02-10T11:03:47.293Z,89817.00
2023-02-10T11:04:47.354Z,89823.00
2023-02-10T11:05:47.584Z,89811.00
2023-02-10T11:06:47.151Z,89811.00
2023-02-10T11:07:47.112Z,89809.00
2023-02-10T11:08:47.084Z,89809.00
2023-02-10T11:09:47.050Z,89813.00
2023-02-10T11:10:47.503Z,89813.00
2023-02-10T11:11:46.969Z,89811.00
2023-02-10T11:12:46.956Z,89807.00
2023-02-10T11:13:46.968Z,89803.00
2023-02-10T11:14:46.909Z,89803.00
2023-02-10T11:15:46.853Z,89803.00
2023-02-10T11:40:46.049Z,89799.00
2023-02-10T11:41:45.647Z,89801.00
2023-02-10T11:42:45.589Z,89797.00
2023-02-10T11:43:45.542Z,89801.00
2023-02-10T11:44:45.496Z,89801.00
2023-02-10T11:45:45.487Z,89793.00
2023-02-10T11:46:45.371Z,89793.00
2023-02-10T11:47:45.323Z,89791.00
2023-02-10T11:48:45.283Z,89790.00
2023-02-10T11:49:45.239Z,89790.00
2023-02-10T11:50:45.178Z,89791.00
2023-02-10T11:51:45.109Z,89788.00
2023-02-10T11:52:45.060Z,89788.00
2023-02-10T11:53:45.061Z,89790.00
2023-02-10T11:54:44.950Z,89784.00
2023-02-10T11:55:44.894Z,89786.00
2023-02-10T11:56:44.841Z,89788.00
2023-02-10T11:57:44.788Z,89786.00
2023-02-10T11:58:44.733Z,89786.00
2023-02-10T11:59:44.708Z,89782.00
2023-02-10T12:00:44.626Z,89780.00
2023-02-10T12:01:44.565Z,89780.00
2023-02-10T12:02:44.561Z,89774.00
2023-02-10T12:03:44.470Z,89772.00
2023-02-10T12:04:44.390Z,89772.00
2023-02-10T12:05:44.365Z,89770.00
2023-02-10T12:06:44.275Z,89768.00
2023-02-10T12:07:44.216Z,89764.00
2023-02-10T12:08:44.329Z,89764.00
2023-02-10T12:09:44.100Z,89766.00
2023-02-10T12:10:44.054Z,89762.00
2023-02-10T12:11:44.009Z,89753.00
2023-02-10T12:59:41.278Z,89680.00
2023-02-10T13:00:41.201Z,89686.00
2023-02-10T13:01:41.210Z,89684.00
2023-02-10T13:02:41.139Z,89686.00
2023-02-10T13:03:41.058Z,89684.00
2023-02-10T13:04:40.995Z,89680.00
2023-02-10T13:05:40.937Z,89682.00
2023-02-10T13:06:40.874Z,89680.00
2023-02-10T13:07:40.809Z,89678.00
2023-02-10T13:08:40.760Z,89680.00
2023-02-10T13:09:40.714Z,89682.00
2023-02-10T13:10:40.640Z,89686.00
2023-02-10T13:11:40.579Z,89680.00
2023-02-10T13:12:40.529Z,89676.00
2023-02-10T13:13:40.482Z,89674.00
2023-02-10T13:14:40.417Z,89678.00
2023-02-10T13:15:40.352Z,89674.00
2023-02-10T13:16:40.333Z,89676.00
2023-02-10T13:17:40.237Z,89672.00
2023-02-10T13:18:40.196Z,89672.00
2023-02-10T13:19:40.149Z,89676.00
2023-02-10T13:20:40.092Z,89671.00
2023-02-10T13:21:40.029Z,89671.00
2023-02-10T13:22:39.972Z,89672.00
2023-02-10T13:23:39.912Z,89676.00
2023-02-10T13:24:39.856Z,89676.00
2023-02-10T13:25:39.803Z,89676.00
2023-02-10T13:26:39.746Z,89672.00
2023-02-10T13:27:39.679Z,89676.00
2023-02-10T13:28:39.611Z,89676.00
2023-02-10T13:29:39.717Z,89671.00
2023-02-10T13:30:39.529Z,89671.00
2023-02-10T13:31:39.486Z,89672.00
2023-02-10T13:32:39.413Z,89672.00
2023-02-10T13:33:39.348Z,89676.00
2023-02-10T13:34:39.279Z,89676.00
2023-02-10T13:35:39.240Z,89676.00
2023-02-10T13:36:39.204Z,89676.00
2023-02-10T13:37:39.143Z,89672.00
2023-02-10T13:38:39.082Z,89674.00
2023-02-10T13:39:39.024Z,89674.00
2023-02-10T13:40:38.987Z,89674.00
2023-02-10T13:41:38.949Z,89676.00
2023-02-10T13:42:38.880Z,89674.00
2023-02-10T13:43:38.823Z,89676.00
2023-02-10T13:44:38.771Z,89678.00
2023-02-10T13:45:38.725Z,89680.00
2023-02-10T13:46:38.710Z,89680.00
2023-02-10T13:47:38.625Z,89678.00
2023-02-10T13:48:38.554Z,89678.00
2023-02-10T13:49:38.512Z,89678.00
2023-02-10T13:50:38.463Z,89678.00
2023-02-10T13:51:38.444Z,89676.00
2023-02-10T13:52:38.356Z,89680.00
2023-02-10T13:53:38.330Z,89678.00
2023-02-10T13:54:38.272Z,89676.00
2023-02-10T13:55:38.193Z,89676.00
2023-02-10T13:56:38.144Z,89676.00
2023-02-10T13:57:38.098Z,89680.00
2023-02-10T13:58:38.032Z,89682.00
2023-02-10T13:59:37.980Z,89682.00
2023-02-10T14:00:37.993Z,89684.00
2023-02-10T14:01:37.894Z,89684.00
2023-02-10T14:02:37.831Z,89684.00
2023-02-10T14:03:37.801Z,89684.00
2023-02-10T14:04:37.770Z,89688.00
2023-02-10T14:05:37.667Z,89688.00
2023-02-10T14:06:37.649Z,89692.00
2023-02-10T14:07:37.568Z,89686.00
2023-02-10T14:08:44.342Z,89688.00
2023-02-10T14:09:38.460Z,89688.00
2023-02-10T14:10:37.397Z,89686.00
2023-02-10T14:11:37.361Z,89682.00
2023-02-10T14:12:37.343Z,89680.00
2023-02-10T14:13:37.287Z,89680.00
2023-02-10T14:14:37.295Z,89686.00
2023-02-10T14:15:37.229Z,89688.00
2023-02-10T14:16:37.268Z,89686.00
2023-02-10T14:17:37.108Z,89684.00
2023-02-10T14:18:36.996Z,89682.00
2023-02-10T14:19:36.945Z,89678.00
2023-02-10T14:20:36.888Z,89678.00
2023-02-10T14:21:36.833Z,89678.00
2023-02-10T14:22:39.000Z,89680.00
2023-02-10T14:23:36.938Z,89682.00
2023-02-10T14:24:49.709Z,89684.00
2023-02-10T14:25:37.862Z,89682.00
2023-02-10T14:26:36.786Z,89680.00
2023-02-10T14:27:36.833Z,89680.00
2023-02-10T14:28:36.731Z,89678.00
2023-02-10T14:29:36.645Z,89678.00
2023-02-10T14:30:36.602Z,89678.00
2023-02-10T14:31:36.672Z,89680.00
2023-02-10T14:32:36.594Z,89682.00
2023-02-10T14:33:36.441Z,89682.00
2023-02-10T14:34:36.397Z,89682.00
2023-02-10T14:35:36.351Z,89680.00
2023-02-10T14:36:36.309Z,89680.00
2023-02-10T14:37:36.300Z,89682.00
2023-02-10T14:38:36.219Z,89676.00
2023-02-10T14:39:36.144Z,89678.00
2023-02-10T14:40:36.082Z,89678.00
2023-02-10T14:41:36.080Z,89682.00
2023-02-10T14:42:35.983Z,89684.00
2023-02-10T14:43:35.988Z,89684.00
2023-02-10T14:44:35.881Z,89688.00
2023-02-10T14:45:35.861Z,89686.00
2023-02-10T14:46:35.780Z,89686.00
2023-02-10T14:47:35.780Z,89690.00
2023-02-10T14:48:35.667Z,89690.00
2023-02-10T14:49:35.616Z,89692.00
2023-02-10T14:50:35.578Z,89692.00
2023-02-10T14:51:35.514Z,89694.00
2023-02-10T14:52:38.451Z,89692.00
2023-02-10T14:53:35.400Z,89694.00
2023-02-10T14:54:35.358Z,89692.00
2023-02-10T14:55:35.318Z,89696.00
2023-02-10T14:56:35.252Z,89692.00
2023-02-10T14:57:35.227Z,89694.00
2023-02-10T14:58:35.153Z,89698.00
2023-02-10T14:59:35.123Z,89698.00
2023-02-10T15:00:35.066Z,89698.00
2023-02-10T15:01:35.034Z,89700.00
2023-02-10T15:02:34.939Z,89700.00
2023-02-10T15:03:34.892Z,89698.00
2023-02-10T15:04:34.838Z,89700.00
2023-02-10T15:05:34.786Z,89700.00
2023-02-10T15:06:34.730Z,89700.00
2023-02-10T15:07:34.687Z,89700.00
2023-02-10T15:08:34.622Z,89702.00
2023-02-10T15:09:34.602Z,89704.00
2023-02-10T15:10:34.523Z,89704.00
2023-02-10T15:11:34.487Z,89700.00
2023-02-10T15:12:39.437Z,89702.00
2023-02-10T15:13:35.394Z,89704.00
2023-02-10T15:14:34.322Z,89708.00
2023-02-10T15:15:34.261Z,89710.00
2023-02-10T15:16:34.245Z,89710.00
2023-02-10T15:17:34.153Z,89710.00
2023-02-10T15:18:34.122Z,89712.00
2023-02-10T15:19:34.087Z,89710.00
2023-02-10T15:20:34.018Z,89710.00
2023-02-10T15:21:33.977Z,89712.00
2023-02-10T15:35:33.252Z,89725.00
2023-02-10T15:36:33.207Z,89727.00
2023-02-10T15:37:33.158Z,89729.00
2023-02-10T15:38:33.096Z,89725.00
2023-02-10T15:39:33.055Z,89727.00
2023-02-10T15:40:32.994Z,89727.00
2023-02-10T15:41:33.005Z,89731.00
2023-02-10T15:42:32.929Z,89727.00
2023-02-10T15:43:32.899Z,89729.00
2023-02-10T15:44:32.837Z,89733.00
2023-02-10T15:45:32.796Z,89733.00
2023-02-10T15:46:32.799Z,89731.00
2023-02-10T15:47:32.687Z,89735.00
2023-02-10T15:48:38.838Z,89739.00
2023-02-10T15:49:33.594Z,89739.00
2023-02-10T15:50:32.559Z,89739.00
2023-02-10T15:51:32.495Z,89739.00
2023-02-10T15:52:32.446Z,89741.00
2023-02-10T15:53:32.422Z,89743.00
2023-02-10T15:54:32.375Z,89745.00
2023-02-10T15:55:32.300Z,89745.00
2023-02-10T15:56:32.246Z,89743.00
2023-02-10T15:57:32.196Z,89747.00
2023-02-10T15:58:32.134Z,89747.00
2023-02-10T15:59:32.103Z,89749.00
2023-02-10T16:00:32.042Z,89749.00
2023-02-10T16:01:32.034Z,89753.00
2023-02-10T16:02:32.008Z,89751.00
2023-02-10T16:03:31.931Z,89753.00
2023-02-10T16:04:31.861Z,89760.00
2023-02-10T16:05:31.803Z,89762.00
2023-02-10T16:06:31.776Z,89766.00
2023-02-10T16:07:31.708Z,89762.00
2023-02-10T16:08:31.680Z,89764.00
2023-02-10T16:09:31.622Z,89768.00
2023-02-10T16:10:31.580Z,89766.00
2023-02-10T16:11:31.518Z,89768.00
2023-02-10T16:12:31.476Z,89770.00
2023-02-10T16:13:31.434Z,89774.00
2023-02-10T16:14:31.415Z,89774.00
2023-02-10T16:15:31.322Z,89772.00
2023-02-10T16:16:31.272Z,89778.00
2023-02-10T16:17:31.224Z,89780.00
2023-02-10T16:18:31.194Z,89780.00
2023-02-10T16:19:31.148Z,89780.00
2023-02-10T16:20:31.099Z,89784.00
2023-02-10T16:21:31.053Z,89784.00
2023-02-10T16:22:31.017Z,89786.00
2023-02-10T16:23:30.965Z,89784.00
2023-02-10T16:24:30.926Z,89788.00
2023-02-10T16:25:30.882Z,89791.00
2023-02-10T16:26:30.849Z,89793.00
2023-02-10T16:27:30.867Z,89793.00
2023-02-10T16:28:30.797Z,89797.00
2023-02-10T16:29:30.789Z,89793.00
2023-02-10T16:30:30.699Z,89795.00
2023-02-10T16:31:30.654Z,89799.00
2023-02-10T16:32:30.588Z,89795.00
2023-02-10T16:33:30.519Z,89797.00
2023-02-10T16:34:30.485Z,89797.00
2023-02-10T16:35:30.438Z,89799.00
2023-02-10T16:36:30.390Z,89801.00
2023-02-10T16:37:30.356Z,89799.00
2023-02-10T16:38:30.319Z,89801.00
2023-02-10T16:39:30.260Z,89805.00
2023-02-10T16:40:30.218Z,89807.00
2023-02-10T16:41:30.168Z,89807.00
2023-02-10T16:42:30.147Z,89809.00
2023-02-10T16:43:30.077Z,89809.00
2023-02-10T16:44:30.035Z,89811.00
2023-02-10T16:45:29.993Z,89815.00
2023-02-10T16:46:30.010Z,89815.00
2023-02-10T16:47:29.901Z,89817.00
2023-02-10T16:48:29.869Z,89819.00
2023-02-10T16:49:29.829Z,89821.00
2023-02-10T16:50:29.801Z,89821.00
2023-02-10T16:51:29.735Z,89823.00
2023-02-10T16:52:29.696Z,89825.00
2023-02-10T16:53:29.672Z,89823.00
2023-02-10T16:54:29.629Z,89823.00
2023-02-10T16:55:29.565Z,89825.00
2023-02-10T16:56:29.526Z,89829.00
2023-02-10T16:57:29.492Z,89829.00
2023-02-10T16:58:29.461Z,89827.00
2023-02-10T16:59:29.421Z,89831.00
2023-02-10T17:00:29.383Z,89833.00
2023-02-10T17:01:29.367Z,89833.00
2023-02-10T17:02:29.359Z,89835.00
2023-02-10T17:03:29.266Z,89839.00
2023-02-10T17:04:29.229Z,89841.00
2023-02-10T17:05:29.180Z,89841.00
2023-02-10T17:06:29.152Z,89839.00
2023-02-10T17:07:29.109Z,89839.00
2023-02-10T17:08:29.081Z,89841.00
2023-02-10T17:09:29.055Z,89841.00
2023-02-10T17:10:28.997Z,89841.00
2023-02-10T17:11:28.957Z,89843.00
2023-02-10T17:12:28.925Z,89843.00
2023-02-10T17:13:28.880Z,89843.00
2023-02-10T17:14:28.856Z,89843.00
2023-02-10T17:15:28.810Z,89846.00
2023-02-10T17:16:28.870Z,89845.00
2023-02-10T17:17:28.715Z,89850.00
2023-02-10T17:18:28.680Z,89846.00
2023-02-10T17:19:28.647Z,89846.00
2023-02-10T17:20:28.622Z,89846.00
2023-02-10T17:21:28.582Z,89852.00
2023-02-10T17:22:28.553Z,89852.00
2023-02-10T17:23:28.513Z,89854.00
2023-02-10T17:24:28.464Z,89856.00
2023-02-10T17:25:28.449Z,89856.00
2023-02-10T17:26:28.407Z,89858.00
2023-02-10T17:27:28.358Z,89856.00
2023-02-10T17:28:28.390Z,89854.00
2023-02-10T17:29:28.345Z,89856.00
2023-02-10T17:30:28.267Z,89856.00
2023-02-10T17:31:28.381Z,89854.00
2023-02-10T17:32:28.192Z,89854.00
2023-02-10T17:33:28.250Z,89854.00
2023-02-10T17:34:28.123Z,89852.00
2023-02-10T17:35:28.087Z,89852.00
2023-02-10T17:36:28.047Z,89854.00
2023-02-10T17:37:27.999Z,89854.00
2023-02-10T17:38:27.961Z,89852.00
2023-02-10T17:39:27.930Z,89852.00
2023-02-10T17:40:27.904Z,89850.00
2023-02-10T17:41:27.865Z,89852.00
2023-02-10T17:42:29.728Z,89854.00
2023-02-10T17:43:27.767Z,89856.00
2023-02-10T17:44:27.735Z,89856.00
2023-02-10T17:45:27.701Z,89858.00
2023-02-10T17:46:27.711Z,89856.00
2023-02-10T17:47:27.633Z,89862.00
2023-02-10T17:48:27.604Z,89860.00
2023-02-10T17:49:27.574Z,89860.00
2023-02-10T17:50:27.528Z,89864.00
2023-02-10T17:51:27.523Z,89866.00
2023-02-10T17:52:27.462Z,89862.00
2023-02-10T17:53:27.433Z,89864.00
2023-02-10T17:54:27.406Z,89864.00
2023-02-10T17:55:27.369Z,89866.00
2023-02-10T17:56:27.345Z,89868.00
2023-02-10T17:57:27.290Z,89866.00
2023-02-10T17:58:28.092Z,89864.00
2023-02-10T17:59:27.245Z,89866.00
2023-02-10T18:00:27.213Z,89864.00
2023-02-10T18:01:27.170Z,89866.00
2023-02-10T18:02:27.253Z,89868.00
2023-02-10T18:03:27.120Z,89864.00
2023-02-10T18:04:27.092Z,89868.00
2023-02-10T18:05:27.065Z,89866.00
2023-02-10T18:06:27.059Z,89868.00
2023-02-10T18:07:27.010Z,89868.00
2023-02-10T18:08:26.982Z,89868.00
2023-02-10T18:09:26.945Z,89870.00
2023-02-10T18:10:26.917Z,89874.00
2023-02-10T18:11:26.896Z,89876.00
2023-02-10T18:12:26.870Z,89876.00
2023-02-10T18:13:26.838Z,89874.00
2023-02-10T18:14:26.819Z,89874.00
2023-02-10T18:15:26.780Z,89876.00
2023-02-10T18:16:26.897Z,89876.00
2023-02-10T18:17:26.714Z,89880.00
2023-02-10T18:18:26.706Z,89880.00
2023-02-10T18:19:26.657Z,89882.00
2023-02-10T18:20:26.649Z,89882.00
2023-02-10T18:21:26.661Z,89884.00
2023-02-10T18:22:26.581Z,89886.00
2023-02-10T18:23:26.535Z,89888.00
2023-02-10T18:24:26.512Z,89890.00
2023-02-10T18:25:26.483Z,89888.00
2023-02-10T18:26:26.597Z,89888.00
2023-02-10T18:27:26.433Z,89894.00
2023-02-10T18:28:26.464Z,89894.00
2023-02-10T18:29:26.377Z,89894.00
2023-02-10T18:30:26.339Z,89898.00
2023-02-10T18:31:26.350Z,89894.00
2023-02-10T18:32:26.287Z,89896.00
2023-02-10T18:33:26.271Z,89898.00
2023-02-10T18:34:26.227Z,89896.00
2023-02-10T18:35:26.188Z,89896.00
2023-02-10T18:36:26.147Z,89894.00
2023-02-10T18:37:26.106Z,89896.00
2023-02-10T18:38:26.079Z,89898.00
2023-02-10T18:39:26.052Z,89898.00
2023-02-10T18:40:26.027Z,89898.00
2023-02-10T18:41:25.968Z,89896.00
2023-02-10T18:42:25.945Z,89896.00
2023-02-10T18:43:25.914Z,89898.00
2023-02-10T18:44:25.866Z,89898.00
2023-02-10T18:45:25.831Z,89898.00
2023-02-10T18:46:25.883Z,89898.00
2023-02-10T18:47:25.768Z,89896.00
2023-02-10T19:04:25.089Z,89903.00
2023-02-10T19:05:25.053Z,89903.00
2023-02-10T19:06:25.013Z,89903.00
2023-02-10T19:07:24.971Z,89901.00
2023-02-10T19:08:24.933Z,89905.00
2023-02-10T19:09:37.863Z,89907.00
2023-02-10T19:10:25.876Z,89905.00
2023-02-10T19:11:24.824Z,89905.00
2023-02-10T19:12:24.786Z,89905.00
2023-02-10T19:13:24.752Z,89905.00
2023-02-10T19:14:24.709Z,89907.00
2023-02-10T19:15:24.697Z,89909.00
2023-02-10T19:16:24.760Z,89909.00
2023-02-10T19:17:24.611Z,89909.00
2023-02-10T19:18:24.575Z,89911.00
2023-02-10T19:19:24.538Z,89913.00
2023-02-10T19:20:24.505Z,89911.00
2023-02-10T19:21:24.478Z,89915.00
2023-02-10T19:22:24.452Z,89915.00
2023-02-10T19:23:24.400Z,89919.00
2023-02-10T19:24:24.386Z,89917.00
2023-02-10T19:25:24.333Z,89919.00
2023-02-10T19:26:24.303Z,89921.00
2023-02-10T19:27:24.273Z,89917.00
2023-02-10T19:28:24.366Z,89913.00
2023-02-10T19:29:24.217Z,89917.00
2023-02-10T19:30:24.318Z,89917.00
2023-02-10T19:31:24.198Z,89917.00
2023-02-10T19:32:24.082Z,89919.00
2023-02-10T19:33:24.048Z,89919.00
2023-02-10T19:34:24.004Z,89923.00
2023-02-10T19:35:23.972Z,89923.00
2023-02-10T19:36:23.928Z,89923.00
2023-02-10T20:05:24.175Z,89943.00
2023-02-10T20:07:24.191Z,89947.00
2023-02-10T20:43:23.932Z,89931.00
2023-02-10T20:45:23.944Z,89929.00
2023-02-10T20:46:24.013Z,89929.00
2023-02-10T20:47:24.002Z,89929.00
2023-02-10T20:48:24.044Z,89927.00
2023-02-10T20:49:24.078Z,89925.00
2023-02-10T20:50:24.087Z,89927.00
2023-02-10T20:51:24.124Z,89925.00
2023-02-10T20:52:24.150Z,89925.00
2023-02-10T20:53:24.177Z,89925.00
2023-02-10T20:54:24.202Z,89925.00
2023-02-10T20:55:24.226Z,89925.00
2023-02-10T20:56:24.251Z,89923.00
2023-02-10T20:57:24.279Z,89927.00
2023-02-10T20:58:24.319Z,89925.00
2023-02-10T20:59:24.347Z,89925.00
2023-02-10T21:00:24.367Z,89925.00
2023-02-10T21:01:24.431Z,89925.00
2023-02-10T21:02:24.511Z,89925.00
2023-02-10T21:03:24.466Z,89923.00
2023-02-10T21:04:24.512Z,89923.00
2023-02-10T21:05:24.517Z,89921.00
2023-02-10T21:06:24.551Z,89919.00
2023-02-10T21:07:24.592Z,89923.00
2023-02-10T21:08:24.619Z,89921.00
2023-02-10T21:09:24.676Z,89919.00
2023-02-10T21:10:24.661Z,89921.00
2023-02-10T21:11:24.688Z,89921.00
2023-02-10T21:12:24.703Z,89917.00
2023-02-10T21:13:24.739Z,89919.00
2023-02-10T21:14:24.810Z,89917.00
2023-02-10T21:15:24.780Z,89917.00
2023-02-10T21:16:24.901Z,89917.00
2023-02-10T21:17:24.845Z,89915.00
2023-02-10T21:18:24.866Z,89915.00
2023-02-10T21:19:24.912Z,89915.00
2023-02-10T21:20:24.945Z,89917.00
2023-02-10T21:21:24.966Z,89917.00
2023-02-10T21:22:25.031Z,89913.00
2023-02-10T21:23:25.023Z,89913.00
2023-02-10T21:24:25.034Z,89915.00
2023-02-10T21:25:25.061Z,89917.00
2023-02-10T21:26:25.098Z,89919.00
2023-02-10T21:27:25.115Z,89917.00
2023-02-10T21:28:25.289Z,89913.00
2023-02-10T21:29:25.172Z,89911.00
2023-02-10T21:30:25.237Z,89911.00
2023-02-10T21:31:25.303Z,89911.00